Time;durP1;ratioP1;P1;durP2;ratioP2;P2;SDS_P1;SDS_P2;PMS_P1;PMS_P2;Temp;Humidity;BMP_temperature;BMP_pressure;BME280_temperature;BME280_humidity;BME280_pressure;Samples;Min_cycle;Max_cycle;Signal;HPM_P1;HPM_P2
2022/01/10 00:01:29;;;;;;;24.83;6.15;;;2.00;99.90;;;;;;5137149;27;20049;-75
2022/01/10 00:03:55;;;;;;;30.63;4.93;;;2.00;99.90;;;;;;5119503;27;20481;-75
2022/01/10 00:06:21;;;;;;;32.88;5.50;;;2.00;99.90;;;;;;5137783;27;20099;-75
2022/01/10 00:08:47;;;;;;;20.20;5.35;;;2.00;99.90;;;;;;5132451;27;20042;-75
2022/01/10 00:11:13;;;;;;;24.70;5.97;;;2.60;99.90;;;;;;5124993;27;20043;-75
2022/01/10 00:13:38;;;;;;;32.65;5.10;;;2.00;99.90;;;;;;5116951;27;20439;-75
2022/01/10 00:16:04;;;;;;;25.33;5.38;;;1.90;99.90;;;;;;5126707;27;20047;-75
2022/01/10 00:18:33;;;;;;;32.45;5.50;;;1.90;99.90;;;;;;5120455;27;20506;-75
2022/01/10 00:20:58;;;;;;;20.30;4.82;;;1.90;99.90;;;;;;5136206;27;20059;-75
2022/01/10 00:23:24;;;;;;;32.38;7.05;;;1.80;99.90;;;;;;5136728;27;20460;-75
2022/01/10 00:25:50;;;;;;;26.90;5.00;;;1.80;99.90;;;;;;5136389;27;20473;-75
2022/01/10 00:28:15;;;;;;;24.55;6.00;;;1.70;99.90;;;;;;5136830;27;20085;-75
2022/01/10 00:30:41;;;;;;;31.15;5.70;;;2.00;99.90;;;;;;5131035;27;20462;-75
2022/01/10 00:33:09;;;;;;;20.63;4.72;;;1.70;99.90;;;;;;5116720;27;20050;-75
2022/01/10 00:35:38;;;;;;;17.02;4.85;;;1.70;99.90;;;;;;5120214;27;20092;-75
2022/01/10 00:38:03;;;;;;;21.05;5.47;;;1.80;99.90;;;;;;5118996;27;20126;-75
2022/01/10 00:40:29;;;;;;;28.73;5.03;;;1.60;99.90;;;;;;5117574;27;20142;-75
2022/01/10 00:42:56;;;;;;;24.52;5.50;;;1.60;99.90;;;;;;5116427;27;20124;-75
2022/01/10 00:45:26;;;;;;;11.13;3.90;;;1.60;99.90;;;;;;5115373;27;20411;-75
2022/01/10 00:47:53;;;;;;;19.92;4.57;;;2.20;99.90;;;;;;5136839;27;20405;-75
2022/01/10 00:50:19;;;;;;;25.60;5.55;;;1.70;99.90;;;;;;5149143;27;20110;-75
2022/01/10 00:52:45;;;;;;;11.85;4.35;;;1.40;99.90;;;;;;5135898;27;20130;-75
2022/01/10 00:55:12;;;;;;;21.15;4.68;;;1.40;99.90;;;;;;5154573;27;20488;-75
2022/01/10 00:57:38;;;;;;;20.88;4.43;;;1.40;99.90;;;;;;5136983;27;20054;-75
2022/01/10 01:00:07;;;;;;;21.63;5.75;;;1.30;99.90;;;;;;5130946;27;20042;-75
2022/01/10 01:02:33;;;;;;;24.23;5.10;;;1.30;99.90;;;;;;5082267;28;20050;-75
2022/01/10 01:05:01;;;;;;;20.50;5.45;;;1.50;99.90;;;;;;5119180;27;20031;-75
2022/01/10 01:07:26;;;;;;;25.58;5.95;;;1.30;99.90;;;;;;5135477;27;20050;-75
2022/01/10 01:10:04;;;;;;;22.23;6.20;;;1.30;99.90;;;;;;5135902;27;20035;-75
2022/01/10 01:12:43;;;;;;;30.92;5.38;;;1.30;99.90;;;;;;5135813;27;20054;-75
2022/01/10 01:15:22;;;;;;;16.88;4.72;;;1.30;99.90;;;;;;5133082;27;20043;-75
2022/01/10 01:25:56;;;;;;;33.65;6.97;;;1.20;99.90;;;;;;5148730;27;20050;-75
2022/01/10 01:28:22;;;;;;;38.92;6.18;;;1.60;99.90;;;;;;5135557;27;20547;-74
2022/01/10 01:30:47;;;;;;;25.75;5.65;;;1.20;99.90;;;;;;5124834;27;20042;-75
2022/01/10 01:33:15;;;;;;;32.42;7.00;;;1.20;99.90;;;;;;5136734;27;20103;-75
2022/01/10 01:35:41;;;;;;;28.13;5.07;;;1.20;99.90;;;;;;5122992;28;20047;-75
2022/01/10 01:38:07;;;;;;;19.15;5.25;;;1.20;99.90;;;;;;5124516;27;20400;-75
2022/01/10 01:40:39;;;;;;;21.20;4.57;;;1.50;99.90;;;;;;5135157;27;20034;-75
2022/01/10 01:43:05;;;;;;;26.45;5.70;;;1.10;99.90;;;;;;5136346;27;20047;-75
2022/01/10 01:45:43;;;;;;;30.42;6.00;;;1.10;99.90;;;;;;5144771;27;20054;-75
2022/01/10 01:48:09;;;;;;;22.33;5.28;;;1.20;99.90;;;;;;5097933;28;20047;-74
2022/01/10 01:50:35;;;;;;;40.55;6.60;;;1.80;99.90;;;;;;5117525;27;20035;-75
2022/01/10 01:53:02;;;;;;;26.00;5.32;;;1.00;99.90;;;;;;5138498;27;20074;-75
2022/01/10 01:55:28;;;;;;;17.90;4.75;;;1.00;99.90;;;;;;5157398;27;20058;-75
2022/01/10 01:57:54;;;;;;;31.08;5.75;;;1.00;99.90;;;;;;5140166;27;20043;-75
2022/01/10 02:00:22;;;;;;;34.70;5.68;;;1.70;99.90;;;;;;5133954;27;20070;-75
2022/01/10 02:02:52;;;;;;;23.50;6.53;;;0.90;99.90;;;;;;5118869;27;20055;-75
2022/01/10 02:05:18;;;;;;;30.50;5.75;;;0.90;99.90;;;;;;5124121;27;20046;-75
2022/01/10 02:07:44;;;;;;;19.23;6.05;;;1.10;99.90;;;;;;5139765;27;20468;-75
2022/01/10 02:10:10;;;;;;;15.77;4.90;;;0.90;99.90;;;;;;5134333;27;20118;-75
2022/01/10 02:12:36;;;;;;;169.70;9.80;;;0.90;99.90;;;;;;5119379;27;20051;-75
2022/01/10 02:15:02;;;;;;;24.02;4.68;;;1.40;99.90;;;;;;5102940;27;20130;-75
2022/01/10 02:17:35;;;;;;;17.13;5.13;;;0.80;99.90;;;;;;5118623;27;20057;-75
2022/01/10 02:20:06;;;;;;;20.70;6.80;;;1.60;99.90;;;;;;5122248;27;20035;-75
2022/01/10 02:22:32;;;;;;;27.42;5.40;;;0.70;99.90;;;;;;5139012;27;20504;-75
2022/01/10 02:24:58;;;;;;;21.10;5.32;;;0.70;99.90;;;;;;5138003;27;20057;-75
2022/01/10 02:27:25;;;;;;;26.02;5.20;;;0.70;99.90;;;;;;5139606;27;20042;-75
2022/01/10 02:29:52;;;;;;;37.97;6.25;;;0.70;99.90;;;;;;5138286;27;20034;-75
2022/01/10 02:32:22;;;;;;;22.35;5.18;;;1.00;99.90;;;;;;5139862;27;20472;-75
2022/01/10 02:34:48;;;;;;;22.80;5.65;;;0.60;99.90;;;;;;5146939;27;20046;-75
2022/01/10 02:37:34;;;;;;;14.07;4.80;;;1.40;99.90;;;;;;5121955;27;20397;-75
2022/01/10 02:40:06;;;;;;;23.88;5.40;;;0.60;99.90;;;;;;5122243;27;20050;-75
2022/01/10 02:42:32;;;;;;;23.08;5.32;;;0.60;99.90;;;;;;5134202;27;20051;-75
2022/01/10 02:44:58;;;;;;;29.60;5.65;;;0.60;99.90;;;;;;5138253;27;20058;-75
2022/01/10 02:47:27;;;;;;;19.33;5.43;;;0.50;99.90;;;;;;5122579;27;20050;-75
2022/01/10 02:49:54;;;;;;;16.00;5.25;;;0.50;99.90;;;;;;5101548;27;20050;-75
2022/01/10 02:52:19;;;;;;;21.08;6.05;;;0.50;99.90;;;;;;5150559;27;20035;-75
2022/01/10 02:54:45;;;;;;;27.48;6.25;;;0.50;99.90;;;;;;5139029;27;20513;-75
2022/01/10 02:57:11;;;;;;;36.78;8.55;;;0.50;99.90;;;;;;5138421;27;20046;-75
2022/01/10 02:59:38;;;;;;;40.60;8.25;;;0.50;99.90;;;;;;5136694;27;20118;-75
2022/01/10 03:02:03;;;;;;;30.73;7.80;;;0.60;99.90;;;;;;5138284;27;20047;-75
2022/01/10 03:04:29;;;;;;;23.75;5.53;;;1.30;99.90;;;;;;5138885;27;20500;-75
2022/01/10 03:06:55;;;;;;;22.17;7.28;;;0.50;99.90;;;;;;5116595;27;20126;-75
2022/01/10 03:09:20;;;;;;;27.95;7.25;;;0.50;99.90;;;;;;5136701;27;20047;-75
2022/01/10 03:11:47;;;;;;;33.65;7.68;;;0.50;99.90;;;;;;5138099;27;20439;-75
2022/01/10 03:14:13;;;;;;;43.00;9.65;;;1.10;99.90;;;;;;5138322;27;20043;-75
2022/01/10 03:16:39;;;;;;;42.88;11.05;;;0.50;99.90;;;;;;5134608;27;20406;-75
2022/01/10 03:19:05;;;;;;;42.33;11.00;;;1.50;99.90;;;;;;5100143;27;20125;-75
2022/01/10 03:21:31;;;;;;;53.88;13.68;;;1.20;99.90;;;;;;5128983;27;20133;-75
2022/01/10 03:23:59;;;;;;;51.33;12.95;;;0.60;99.90;;;;;;5118049;27;20106;-75
2022/01/10 03:26:26;;;;;;;75.78;13.77;;;1.20;99.90;;;;;;5136572;27;20047;-75
2022/01/10 03:28:53;;;;;;;54.58;13.73;;;1.30;99.90;;;;;;5138824;27;20390;-75
2022/01/10 03:31:19;;;;;;;37.95;12.35;;;0.70;99.90;;;;;;5126682;27;20043;-75
2022/01/10 03:33:53;;;;;;;67.43;10.18;;;1.10;99.90;;;;;;5119114;27;20050;-75
2022/01/10 03:36:19;;;;;;;;;;;0.70;99.90;;;;;;5138773;27;20103;-75
2022/01/10 03:38:45;;;;;;;23.33;8.88;;;0.60;99.90;;;;;;5137422;27;19919;-75
2022/01/10 03:41:10;;;;;;;36.38;9.80;;;1.10;99.90;;;;;;5137416;27;20042;-75
2022/01/10 03:43:36;;;;;;;35.38;10.23;;;0.50;99.90;;;;;;5156507;27;20050;-75
2022/01/10 03:46:02;;;;;;;185.85;14.73;;;0.50;99.90;;;;;;5117278;27;20100;-75
2022/01/10 03:48:28;;;;;;;42.63;11.73;;;1.30;99.90;;;;;;5135319;27;20506;-75
2022/01/10 03:50:54;;;;;;;66.32;14.82;;;0.50;99.90;;;;;;5118977;27;20043;-75
2022/01/10 03:53:19;;;;;;;46.40;12.65;;;0.50;99.90;;;;;;5137879;27;20054;-75
2022/01/10 03:55:45;;;;;;;57.08;13.30;;;0.50;99.90;;;;;;5136157;27;20107;-75
2022/01/10 03:58:11;;;;;;;62.85;17.00;;;1.50;99.90;;;;;;5137996;27;20043;-75
2022/01/10 04:00:36;;;;;;;51.35;13.57;;;1.10;99.90;;;;;;5122527;27;20149;-75
2022/01/10 04:03:06;;;;;;;57.25;15.38;;;0.40;99.90;;;;;;5135001;27;20046;-75
2022/01/10 04:05:34;;;;;;;37.15;12.00;;;1.50;99.90;;;;;;5151854;27;20393;-75
2022/01/10 04:08:01;;;;;;;46.80;13.07;;;0.40;99.90;;;;;;5119141;27;20046;-75
2022/01/10 04:10:27;;;;;;;57.13;14.98;;;0.90;99.90;;;;;;5137108;27;20046;-75
2022/01/10 04:12:53;;;;;;;59.85;15.80;;;0.40;99.90;;;;;;5137009;27;20049;-75
2022/01/10 04:15:19;;;;;;;42.60;13.35;;;0.40;99.90;;;;;;5136486;27;20043;-75
2022/01/10 04:17:45;;;;;;;55.97;16.00;;;0.40;99.90;;;;;;5130049;27;20046;-74
2022/01/10 04:20:11;;;;;;;46.13;14.35;;;0.80;99.90;;;;;;5117225;27;20050;-75
2022/01/10 04:22:36;;;;;;;198.13;24.27;;;0.40;99.90;;;;;;5120778;27;20035;-75
2022/01/10 04:25:04;;;;;;;122.75;22.05;;;1.10;99.90;;;;;;5135194;27;20049;-75
2022/01/10 04:27:32;;;;;;;98.45;19.85;;;0.50;99.90;;;;;;5136522;27;20090;-75
2022/01/10 04:29:59;;;;;;;55.40;16.52;;;0.50;99.90;;;;;;5136644;27;20054;-74
2022/01/10 04:32:27;;;;;;;145.20;20.52;;;0.50;99.90;;;;;;5133232;27;20054;-75
2022/01/10 04:34:53;;;;;;;47.55;14.55;;;0.50;99.90;;;;;;5116766;27;20079;-75
2022/01/10 04:37:19;;;;;;;34.90;12.48;;;0.50;99.90;;;;;;5130026;27;20537;-74
2022/01/10 04:39:44;;;;;;;39.38;13.52;;;0.40;99.90;;;;;;5137449;27;20168;-75
2022/01/10 04:42:10;;;;;;;35.33;11.85;;;0.40;99.90;;;;;;5122839;27;20039;-76
2022/01/10 04:44:36;;;;;;;317.75;30.48;;;0.30;99.90;;;;;;5115445;27;20129;-75
2022/01/10 04:47:02;;;;;;;60.15;18.23;;;0.30;99.90;;;;;;5128775;27;20046;-74
2022/01/10 04:49:30;;;;;;;41.72;14.32;;;0.30;99.90;;;;;;5137235;27;20050;-74
2022/01/10 04:51:56;;;;;;;36.38;12.57;;;0.30;99.90;;;;;;5124703;27;20058;-75
2022/01/10 04:54:21;;;;;;;64.55;15.60;;;0.20;99.90;;;;;;5134602;27;20039;-75
2022/01/10 04:56:47;;;;;;;38.28;13.35;;;0.20;99.90;;;;;;5136334;27;20038;-75
2022/01/10 04:59:14;;;;;;;47.20;14.43;;;1.10;99.90;;;;;;5118806;27;20500;-74
2022/01/10 05:01:40;;;;;;;29.70;12.15;;;1.10;99.90;;;;;;5135979;27;20123;-74
2022/01/10 05:04:07;;;;;;;42.45;14.10;;;0.10;99.90;;;;;;5137015;27;20474;-74
2022/01/10 05:06:32;;;;;;;45.72;15.48;;;0.80;99.90;;;;;;5130190;27;20086;-75
2022/01/10 05:09:04;;;;;;;61.83;18.20;;;0.10;99.90;;;;;;5127351;27;20039;-75
2022/01/10 05:11:32;;;;;;;60.13;19.10;;;0.20;99.90;;;;;;5132018;27;20076;-74
2022/01/10 05:13:58;;;;;;;55.05;16.67;;;0.20;99.90;;;;;;5126193;27;20038;-74
2022/01/10 05:16:24;;;;;;;61.42;17.08;;;0.20;99.90;;;;;;5135948;27;20373;-74
2022/01/10 05:18:50;;;;;;;65.93;19.77;;;0.20;99.90;;;;;;5118654;27;20039;-75
2022/01/10 05:21:17;;;;;;;72.55;22.15;;;0.20;99.90;;;;;;5135221;27;20173;-75
2022/01/10 05:23:43;;;;;;;75.63;20.77;;;0.80;99.90;;;;;;5127879;27;20047;-75
2022/01/10 05:26:09;;;;;;;66.90;21.15;;;1.00;99.90;;;;;;5137063;27;20104;-75
2022/01/10 05:28:35;;;;;;;64.65;21.30;;;0.90;99.90;;;;;;5140203;27;20054;-75
2022/01/10 05:31:01;;;;;;;73.45;22.58;;;0.30;99.90;;;;;;5123535;27;20046;-75
2022/01/10 05:33:27;;;;;;;51.47;19.48;;;0.80;99.90;;;;;;5104106;27;20047;-75
2022/01/10 05:35:53;;;;;;;68.07;22.20;;;0.30;99.90;;;;;;5120295;27;20039;-75
2022/01/10 05:38:19;;;;;;;314.88;27.23;;;0.30;99.90;;;;;;5135978;27;20046;-75
2022/01/10 05:40:44;;;;;;;281.08;28.05;;;0.30;99.90;;;;;;5139695;27;20035;-75
2022/01/10 05:43:11;;;;;;;43.10;14.25;;;1.10;99.90;;;;;;5122347;27;20054;-75
2022/01/10 05:45:39;;;;;;;52.13;16.75;;;0.20;99.90;;;;;;5138050;27;20062;-75
2022/01/10 05:48:11;;;;;;;29.30;13.93;;;1.10;99.90;;;;;;5119247;27;20043;-75
2022/01/10 05:50:40;;;;;;;49.28;16.08;;;0.10;99.90;;;;;;5140535;27;20046;-75
2022/01/10 05:53:07;;;;;;;43.63;15.85;;;0.10;99.90;;;;;;5130364;27;20038;-75
2022/01/10 05:55:35;;;;;;;44.17;15.90;;;0.40;99.90;;;;;;5122337;27;20039;-75
2022/01/10 05:58:01;;;;;;;38.72;16.17;;;0.00;99.90;;;;;;5139820;27;20043;-75
2022/01/10 06:00:27;;;;;;;43.28;15.32;;;0.40;99.90;;;;;;5140135;27;20462;-75
2022/01/10 06:02:52;;;;;;;42.22;17.63;;;0.00;99.90;;;;;;5138560;27;20041;-75
2022/01/10 06:05:19;;;;;;;42.58;15.18;;;-0.10;99.90;;;;;;5119387;27;20035;-75
2022/01/10 06:07:45;;;;;;;44.00;15.93;;;0.40;99.90;;;;;;5122480;27;20077;-75
2022/01/10 06:10:11;;;;;;;45.20;17.40;;;-0.10;99.90;;;;;;5123092;27;20046;-75
2022/01/10 06:12:37;;;;;;;42.20;16.02;;;-0.10;99.90;;;;;;5110816;27;20137;-75
2022/01/10 06:15:03;;;;;;;33.25;13.80;;;-0.20;99.90;;;;;;5139052;27;20108;-74
2022/01/10 06:17:29;;;;;;;45.47;15.55;;;-0.20;99.90;;;;;;5115680;27;20119;-75
2022/01/10 06:19:54;;;;;;;33.80;13.73;;;-0.20;99.90;;;;;;5124032;27;20477;-74
2022/01/10 06:22:20;;;;;;;36.53;14.57;;;0.80;99.90;;;;;;5130991;27;20046;-75
2022/01/10 06:24:46;;;;;;;36.83;14.30;;;-0.20;99.90;;;;;;5139742;27;20050;-75
2022/01/10 06:27:11;;;;;;;46.33;16.23;;;-0.30;99.90;;;;;;5139754;27;20047;-74
2022/01/10 06:29:37;;;;;;;38.95;15.45;;;-0.30;99.90;;;;;;5138980;27;20411;-74
2022/01/10 06:32:03;;;;;;;37.72;12.75;;;-0.30;99.90;;;;;;5139601;27;20047;-74
2022/01/10 06:34:30;;;;;;;33.67;13.70;;;-0.30;99.90;;;;;;5139676;27;20039;-75
2022/01/10 06:36:56;;;;;;;28.63;12.95;;;-0.30;99.90;;;;;;5138654;27;20043;-75
2022/01/10 06:39:21;;;;;;;35.65;14.15;;;-0.30;99.90;;;;;;5122309;27;20043;-75
2022/01/10 06:41:47;;;;;;;29.80;12.43;;;-0.30;99.90;;;;;;5138904;27;20510;-75
2022/01/10 06:44:13;;;;;;;25.65;12.82;;;0.00;99.90;;;;;;5138554;27;20076;-75
2022/01/10 06:46:39;;;;;;;25.77;12.73;;;-0.20;99.90;;;;;;5136907;27;20050;-75
2022/01/10 06:49:04;;;;;;;36.22;14.48;;;-0.20;99.90;;;;;;5139119;27;20130;-75
2022/01/10 06:51:30;;;;;;;41.22;15.05;;;-0.40;99.90;;;;;;5134195;27;20046;-75
2022/01/10 06:53:56;;;;;;;43.25;16.58;;;0.70;99.90;;;;;;5139013;27;20110;-75
2022/01/10 06:56:21;;;;;;;35.72;14.02;;;-0.40;99.90;;;;;;5138312;27;20086;-76
2022/01/10 06:58:47;;;;;;;42.20;17.83;;;0.10;99.90;;;;;;5138398;27;20050;-76
2022/01/10 07:01:17;;;;;;;39.22;18.92;;;-0.40;99.90;;;;;;5147297;27;20050;-75
2022/01/10 07:03:44;;;;;;;50.92;17.13;;;-0.40;99.90;;;;;;5118823;27;20107;-75
2022/01/10 07:06:10;;;;;;;35.97;15.45;;;-0.40;99.90;;;;;;5125948;27;20069;-75
2022/01/10 07:08:35;;;;;;;32.55;15.88;;;0.50;99.90;;;;;;5138572;27;20042;-76
2022/01/10 07:11:01;;;;;;;37.17;14.85;;;0.30;99.90;;;;;;5137395;27;20035;-75
2022/01/10 07:13:27;;;;;;;42.40;17.38;;;-0.40;99.90;;;;;;5139090;27;20127;-74
2022/01/10 07:15:53;;;;;;;46.90;17.10;;;-0.40;99.90;;;;;;5137067;27;20041;-74
2022/01/10 07:18:19;;;;;;;35.05;16.98;;;-0.40;99.90;;;;;;5137881;27;20375;-74
2022/01/10 07:20:44;;;;;;;34.38;16.98;;;-0.40;99.90;;;;;;5138076;27;20046;-75
2022/01/10 07:23:13;;;;;;;38.45;17.63;;;0.50;99.90;;;;;;5121418;27;20500;-75
2022/01/10 07:25:38;;;;;;;41.10;16.48;;;-0.40;99.90;;;;;;5118476;27;20602;-76
2022/01/10 07:28:04;;;;;;;35.78;17.10;;;-0.50;99.90;;;;;;5118000;27;20125;-75
2022/01/10 07:30:30;;;;;;;43.88;18.88;;;-0.40;99.90;;;;;;5117853;27;20085;-76
2022/01/10 07:32:56;;;;;;;36.42;16.67;;;-0.40;99.90;;;;;;5099764;27;20122;-75
2022/01/10 07:35:22;;;;;;;48.58;18.02;;;-0.40;99.90;;;;;;5119542;27;20046;-76
2022/01/10 07:37:48;;;;;;;31.45;16.20;;;-0.40;99.90;;;;;;5137920;27;20062;-75
2022/01/10 07:40:14;;;;;;;44.47;17.95;;;-0.40;99.90;;;;;;5117695;27;20401;-75
2022/01/10 07:42:46;;;;;;;29.50;13.80;;;-0.40;99.90;;;;;;5136530;27;20043;-75
2022/01/10 07:45:21;;;;;;;27.42;14.00;;;-0.40;99.90;;;;;;5142533;27;20055;-75
2022/01/10 07:47:51;;;;;;;30.98;15.55;;;-0.50;99.90;;;;;;5102564;27;20047;-75
2022/01/10 07:50:17;;;;;;;24.58;12.68;;;0.00;99.90;;;;;;5123601;27;20043;-75
2022/01/10 07:52:43;;;;;;;28.52;15.48;;;-0.50;99.90;;;;;;5117074;27;20126;-75
2022/01/10 07:55:09;;;;;;;26.48;13.40;;;-0.50;99.90;;;;;;5133446;27;20073;-75
2022/01/10 07:57:37;;;;;;;27.42;14.68;;;-0.50;99.90;;;;;;5117407;27;20050;-75
2022/01/10 08:00:13;;;;;;;25.90;13.52;;;-0.50;99.90;;;;;;5104414;27;20078;-75
2022/01/10 08:02:39;;;;;;;27.13;12.88;;;-0.50;99.90;;;;;;5116716;27;20054;-75
2022/01/10 08:05:09;;;;;;;28.65;14.00;;;-0.50;99.90;;;;;;5131335;27;20404;-75
2022/01/10 08:07:35;;;;;;;36.55;15.00;;;-0.50;99.90;;;;;;5134878;27;20054;-75
2022/01/10 08:10:04;;;;;;;33.85;15.65;;;-0.50;99.90;;;;;;5137609;27;20042;-75
2022/01/10 08:12:30;;;;;;;40.25;16.65;;;-0.50;99.90;;;;;;5137558;27;20107;-75
2022/01/10 08:14:56;;;;;;;34.78;15.73;;;0.20;99.90;;;;;;5135549;27;20443;-75
2022/01/10 08:17:22;;;;;;;33.88;14.13;;;-0.50;99.90;;;;;;5136812;27;20058;-75
2022/01/10 08:19:50;;;;;;;30.77;13.82;;;-0.50;99.90;;;;;;5137577;27;20047;-75
2022/01/10 08:22:17;;;;;;;24.92;14.18;;;-0.50;99.90;;;;;;5115869;27;20102;-75
2022/01/10 08:24:42;;;;;;;28.02;14.68;;;0.30;99.90;;;;;;5118175;27;20035;-75
2022/01/10 08:27:08;;;;;;;30.42;14.65;;;-0.50;99.90;;;;;;5141492;27;20500;-75
2022/01/10 08:29:34;;;;;;;27.13;13.38;;;-0.60;99.90;;;;;;5134314;27;20076;-75
2022/01/10 08:32:00;;;;;;;27.27;13.38;;;-0.10;99.90;;;;;;5129832;27;20043;-75
2022/01/10 08:34:26;;;;;;;35.03;15.68;;;-0.50;99.90;;;;;;5127750;27;20050;-75
2022/01/10 08:36:56;;;;;;;29.30;14.38;;;-0.50;99.90;;;;;;5134783;27;20466;-75
2022/01/10 08:39:21;;;;;;;28.38;15.75;;;-0.50;99.90;;;;;;5111885;27;20062;-75
2022/01/10 08:41:47;;;;;;;32.88;16.45;;;0.10;99.90;;;;;;5114815;27;20089;-75
2022/01/10 08:44:17;;;;;;;32.97;16.15;;;-0.30;99.90;;;;;;5097339;27;20042;-75
2022/01/10 08:46:44;;;;;;;48.50;20.05;;;-0.40;99.90;;;;;;5106571;28;20562;-75
2022/01/10 08:49:12;;;;;;;56.95;23.52;;;-0.40;99.90;;;;;;5130054;27;20044;-75
2022/01/10 08:51:39;;;;;;;42.75;19.38;;;0.40;99.90;;;;;;5126565;27;20398;-75
2022/01/10 08:54:05;;;;;;;39.28;16.92;;;0.30;99.90;;;;;;5112889;28;20078;-74
2022/01/10 08:56:32;;;;;;;29.55;16.30;;;-0.30;99.90;;;;;;5112373;28;20394;-74
2022/01/10 08:58:58;;;;;;;36.70;17.58;;;-0.30;99.90;;;;;;5112860;28;20040;-74
2022/01/10 09:01:24;;;;;;;33.53;17.50;;;-0.20;99.90;;;;;;5122676;27;20050;-74
2022/01/10 09:03:50;;;;;;;34.15;16.67;;;-0.20;99.90;;;;;;5132437;27;20047;-74
2022/01/10 09:06:16;;;;;;;31.58;16.58;;;-0.20;99.90;;;;;;5111238;28;20066;-75
2022/01/10 09:08:44;;;;;;;36.47;16.83;;;-0.10;99.90;;;;;;5133484;27;20374;-74
2022/01/10 09:11:10;;;;;;;33.20;17.33;;;-0.10;99.90;;;;;;5131987;27;20051;-74
2022/01/10 09:13:36;;;;;;;34.53;16.83;;;-0.10;99.90;;;;;;5134638;27;20046;-74
2022/01/10 09:16:03;;;;;;;32.15;18.02;;;-0.10;99.90;;;;;;5122884;27;20043;-74
2022/01/10 09:18:34;;;;;;;30.80;16.13;;;-0.10;99.90;;;;;;5112097;28;20045;-74
2022/01/10 09:21:00;;;;;;;30.17;16.45;;;0.00;99.90;;;;;;5132825;28;20050;-74
2022/01/10 09:23:27;;;;;;;28.25;15.75;;;0.80;99.90;;;;;;5132757;28;20487;-75
2022/01/10 09:25:54;;;;;;;28.55;17.95;;;0.10;99.90;;;;;;5128454;28;20491;-74
2022/01/10 09:28:20;;;;;;;30.23;17.85;;;0.10;99.90;;;;;;5112701;28;20112;-74
2022/01/10 09:30:47;;;;;;;44.58;19.73;;;0.10;99.90;;;;;;5131972;28;20035;-74
2022/01/10 09:33:14;;;;;;;35.60;20.05;;;0.20;99.90;;;;;;5132340;28;20435;-74
2022/01/10 09:35:43;;;;;;;44.67;20.33;;;0.20;99.90;;;;;;5116211;28;20044;-74
2022/01/10 09:38:10;;;;;;;49.85;22.35;;;0.30;99.90;;;;;;5116078;28;20398;-74
2022/01/10 09:40:36;;;;;;;44.45;22.38;;;0.30;99.90;;;;;;5127851;28;20050;-75
2022/01/10 09:43:02;;;;;;;42.38;22.98;;;0.40;99.90;;;;;;5119424;28;20122;-74
2022/01/10 09:45:28;;;;;;;63.42;25.88;;;0.50;99.90;;;;;;5130578;28;20055;-74
2022/01/10 09:47:53;;;;;;;56.33;27.63;;;0.50;99.90;;;;;;5130203;28;20051;-76
2022/01/10 09:50:19;;;;;;;72.07;35.05;;;0.60;99.90;;;;;;5102227;28;20219;-75
2022/01/10 09:52:49;;;;;;;54.92;29.38;;;0.70;99.90;;;;;;5121455;28;20047;-75
2022/01/10 09:55:15;;;;;;;62.80;30.20;;;0.70;99.90;;;;;;5132499;28;20082;-75
2022/01/10 09:57:41;;;;;;;67.45;29.95;;;0.80;99.90;;;;;;5131795;28;20578;-75
2022/01/10 10:00:09;;;;;;;50.65;26.02;;;0.80;99.90;;;;;;5131827;28;20166;-75
2022/01/10 10:02:36;;;;;;;53.03;28.00;;;0.90;99.90;;;;;;5115804;28;20051;-75
2022/01/10 10:05:08;;;;;;;61.90;28.13;;;0.90;99.90;;;;;;5112284;28;20040;-75
2022/01/10 10:07:36;;;;;;;70.20;30.33;;;1.00;99.90;;;;;;5127547;28;20051;-75
2022/01/10 10:10:07;;;;;;;62.08;28.63;;;1.00;99.90;;;;;;5133553;27;20046;-74
2022/01/10 10:12:34;;;;;;;62.97;28.10;;;1.10;99.90;;;;;;5134121;27;20047;-75
2022/01/10 10:15:00;;;;;;;63.53;28.40;;;1.10;99.90;;;;;;5135619;27;20050;-75
2022/01/10 10:17:28;;;;;;;59.60;29.70;;;1.20;99.90;;;;;;5134380;27;20047;-75
2022/01/10 10:19:54;;;;;;;60.90;27.25;;;1.60;99.90;;;;;;5119115;27;20039;-76
2022/01/10 10:22:24;;;;;;;51.35;27.33;;;1.40;99.90;;;;;;5130258;27;20122;-75
2022/01/10 10:24:50;;;;;;;56.90;26.45;;;1.30;99.90;;;;;;5118740;27;20051;-76
2022/01/10 10:27:17;;;;;;;53.55;26.30;;;1.30;99.90;;;;;;5135409;27;20046;-75
2022/01/10 10:29:44;;;;;;;51.45;25.33;;;1.50;99.90;;;;;;5135372;27;20049;-76
2022/01/10 10:32:11;;;;;;;48.38;25.17;;;1.40;99.90;;;;;;5122194;27;20043;-76
2022/01/10 10:34:38;;;;;;;59.80;26.77;;;1.50;99.90;;;;;;5115622;28;20070;-76
2022/01/10 10:37:09;;;;;;;50.22;26.65;;;2.10;99.90;;;;;;5126590;27;20043;-75
2022/01/10 10:39:41;;;;;;;60.58;28.63;;;1.50;99.90;;;;;;5135663;27;20046;-75
2022/01/10 10:42:14;;;;;;;59.35;30.08;;;1.60;99.90;;;;;;5123703;27;20086;-76
2022/01/10 10:44:42;;;;;;;66.10;30.08;;;1.60;99.90;;;;;;5098368;27;20043;-76
2022/01/10 10:47:10;;;;;;;67.45;32.83;;;1.70;99.90;;;;;;5129419;27;20051;-75
2022/01/10 10:49:40;;;;;;;81.18;33.47;;;1.80;99.90;;;;;;5138494;27;20054;-75
2022/01/10 10:52:09;;;;;;;61.65;30.88;;;1.80;99.90;;;;;;5128988;27;20494;-75
2022/01/10 10:54:36;;;;;;;61.58;30.17;;;1.90;99.90;;;;;;5129507;27;20047;-75
2022/01/10 10:57:06;;;;;;;67.13;34.33;;;2.00;99.90;;;;;;5117488;27;20039;-76
2022/01/10 10:59:35;;;;;;;56.15;29.75;;;2.00;99.90;;;;;;5118656;27;20100;-75
2022/01/10 11:02:02;;;;;;;89.47;34.42;;;2.10;99.90;;;;;;5136563;27;20047;-76
2022/01/10 11:04:30;;;;;;;85.75;35.53;;;2.20;99.90;;;;;;5117797;27;20062;-75
2022/01/10 11:06:58;;;;;;;74.20;31.98;;;2.30;99.90;;;;;;5117816;27;20066;-75
2022/01/10 11:09:24;;;;;;;66.75;31.30;;;2.30;99.90;;;;;;5149710;27;20070;-75
2022/01/10 11:11:50;;;;;;;58.22;28.85;;;2.40;99.90;;;;;;5155866;27;20047;-75
2022/01/10 11:14:18;;;;;;;58.70;28.38;;;2.50;99.90;;;;;;5117799;27;20523;-75
2022/01/10 11:16:46;;;;;;;58.72;28.33;;;2.50;99.90;;;;;;5118116;27;20050;-75
2022/01/10 11:19:16;;;;;;;59.97;27.98;;;2.50;99.90;;;;;;5137655;27;20376;-75
2022/01/10 11:21:51;;;;;;;56.95;27.25;;;2.60;99.90;;;;;;5157185;27;20038;-75
2022/01/10 11:24:50;;;;;;;52.30;27.77;;;2.70;99.90;;;;;;5135144;27;20053;-75
2022/01/10 11:27:39;;;;;;;64.10;28.70;;;2.70;99.90;;;;;;5117884;27;20066;-75
2022/01/10 11:30:29;;;;;;;64.00;29.75;;;2.80;99.90;;;;;;5123771;27;20053;-75
2022/01/10 11:33:10;;;;;;;57.60;26.92;;;2.80;99.90;;;;;;5136147;27;20520;-75
2022/01/10 11:35:39;;;;;;;56.15;28.42;;;2.90;99.90;;;;;;5121126;27;20046;-75
2022/01/10 11:38:32;;;;;;;51.55;26.85;;;3.20;99.90;;;;;;5156169;27;20045;-74
2022/01/10 11:41:08;;;;;;;54.10;25.95;;;3.10;99.90;;;;;;5156537;27;20045;-73
2022/01/10 11:43:40;;;;;;;51.30;26.38;;;3.20;99.90;;;;;;5156008;27;20043;-74
2022/01/10 11:46:12;;;;;;;53.38;26.60;;;3.20;99.90;;;;;;5120238;27;20047;-74
2022/01/10 11:48:59;;;;;;;56.58;27.80;;;3.30;99.90;;;;;;5132822;27;20092;-74
2022/01/10 11:51:28;;;;;;;55.35;26.92;;;3.40;99.90;;;;;;5138313;27;20050;-74
2022/01/10 11:54:08;;;;;;;49.45;22.98;;;3.60;99.90;;;;;;5128035;27;20039;-74
2022/01/10 11:56:35;;;;;;;47.92;23.33;;;4.10;99.90;;;;;;5118854;27;20462;-76
2022/01/10 11:59:28;;;;;;;42.28;23.40;;;3.80;99.90;;;;;;5117298;27;20079;-76
2022/01/10 12:01:58;;;;;;;57.85;27.73;;;3.80;99.90;;;;;;5131337;27;20039;-74
2022/01/10 12:04:29;;;;;;;48.28;25.05;;;3.80;99.90;;;;;;5156478;27;20440;-74
2022/01/10 12:06:56;;;;;;;41.97;25.05;;;3.90;99.90;;;;;;5134372;27;20078;-76
2022/01/10 12:09:22;;;;;;;49.45;25.13;;;4.00;99.90;;;;;;5137240;27;20477;-76
2022/01/10 12:11:51;;;;;;;49.78;25.08;;;4.10;99.90;;;;;;5135194;27;20569;-76
2022/01/10 12:14:17;;;;;;;43.55;25.20;;;4.10;99.90;;;;;;5124613;27;20130;-76
2022/01/10 12:16:43;;;;;;;53.10;26.65;;;4.20;99.90;;;;;;5124870;27;20030;-76
2022/01/10 12:19:10;;;;;;;46.95;25.50;;;4.30;99.90;;;;;;5137355;27;20039;-76
2022/01/10 12:21:39;;;;;;;41.03;22.92;;;4.40;99.90;;;;;;5135987;27;20054;-76
2022/01/10 12:24:07;;;;;;;47.40;23.50;;;4.40;99.90;;;;;;5136428;27;20039;-76
2022/01/10 12:26:34;;;;;;;41.90;22.88;;;4.50;99.90;;;;;;5137096;27;20078;-76
2022/01/10 12:29:02;;;;;;;48.67;24.83;;;4.50;99.90;;;;;;5121055;27;20043;-76
2022/01/10 12:31:29;;;;;;;38.08;20.85;;;4.60;99.90;;;;;;5116508;27;20510;-76
2022/01/10 12:33:57;;;;;;;38.10;20.20;;;4.60;99.90;;;;;;5130322;27;20109;-76
2022/01/10 12:36:24;;;;;;;39.05;20.27;;;4.60;99.90;;;;;;5136347;27;20086;-76
2022/01/10 12:38:58;;;;;;;42.03;21.08;;;4.60;99.90;;;;;;5132872;27;20398;-76
2022/01/10 12:41:28;;;;;;;41.22;22.17;;;4.60;99.90;;;;;;5136895;27;20043;-76
2022/01/10 12:43:55;;;;;;;41.47;20.80;;;4.70;99.90;;;;;;5125176;27;20118;-76
2022/01/10 12:46:22;;;;;;;32.25;18.50;;;4.70;99.90;;;;;;5134662;27;20051;-76
2022/01/10 12:48:50;;;;;;;38.83;22.15;;;4.60;99.90;;;;;;5144298;27;20046;-76